Pagrindinis puslapis
METAR-TAF:

METAR-TAF

Oro uostai :

Penang, Malaizija

platuma: 05-18N, ilguma: 100-16E, Aukštis: 3 m

Dabartinis oras

Ataskaita buvo paskelbta 29 minutes, ne 14:30 UTC
Vėjas 2 kt nuo kintamojo kryptimis
Temperatūra 30°C
Drėgmė 75%
Slėgis 1010 hPa
Matomumas: 8000 m
Mažai debesys ne aukštis 2500 ft
Išsisklaidę debesys ne aukštis 14000 ft
Su prošvaistėmis ne aukštis 27000 ft

METAR: WMKP 171430Z VRB02KT 8000 FEW025 SCT140 BKN270 30/25 Q1010 NOSIG

Laikas: 22:59 (14:59 UTC)

Prognozė

Ataskaita buvo paskelbta 3 valandos ir 59 minutes, ne 11:00 UTC
Prognozė galioja nuo 17 metu 12 UTC su 18 metu 12 UTC
Vėjas 3 kt nuo kintamojo kryptimis
Matomumas: 8000 m
Mažai debesys ne aukštis 2500 ft
Tapsmas
nuo 17 metu 20 UTC su 17 metu 22 UTC
Vėjas 5 kt iš Pietų/Pietryčių
Matomumas: 7000 m
Tapsmas
nuo 18 metu 03 UTC su 18 metu 05 UTC
Vėjas 10 kt iš Pietų/Pietvakarių
Mažai debesys ne aukštis 2000 ft

TAF: WMKP 171100Z 1712/1812 VRB03KT 8000 FEW025 BECMG 1720/1722 16005KT 7000 BECMG 1803/1805 21010KT FEW020

Orai ataskaitas ir orų prognozės (METAR, TAF).

turimą stotys yra geltonos ir raudonos taškus žemėlapyje.

Perkelti pele per norėdami pamatyti stoties vardą.

Tada spustelėkite, norėdami matyti oro stebėjimo ir prognozės.

Norėdami pakeisti žemėlapį: spustelėkite ant žalios mygtukų su juodo kryžiaus žemyn,; žalią mygtuką su brūkšneliu, jei norite nutolinti; arba žalių rodyklių gretimoms žemėlapius.


METAR-TAF: